Time;durP1;ratioP1;P1;durP2;ratioP2;P2;SDS_P1;SDS_P2;PMS_P1;PMS_P2;Temp;Humidity;BMP_temperature;BMP_pressure;BME280_temperature;BME280_humidity;BME280_pressure;Samples;Min_cycle;Max_cycle;Signal;HPM_P1;HPM_P2
2022/01/15 00:02:23;;;;;;;4.97;2.20;;;;;;;5.73;100.00;103337.63;4966400;28;20232;-77
2022/01/15 00:04:48;;;;;;;5.10;2.77;;;;;;;6.01;100.00;103379.22;4963849;28;20562;-77
2022/01/15 00:07:14;;;;;;;4.43;1.80;;;;;;;6.10;100.00;103358.13;4977667;28;20437;-76
2022/01/15 00:09:42;;;;;;;9.27;2.60;;;;;;;6.11;100.00;103311.84;4979360;28;20564;-76
2022/01/15 00:12:08;;;;;;;4.13;1.40;;;;;;;5.71;100.00;103244.53;4972972;28;20174;-77
2022/01/15 00:14:38;;;;;;;8.37;2.20;;;;;;;5.84;100.00;103273.81;4964511;28;20435;-76
2022/01/15 00:17:14;;;;;;;8.80;2.30;;;;;;;5.39;100.00;103246.78;4978135;28;20437;-76
2022/01/15 00:19:43;;;;;;;5.23;1.97;;;;;;;4.82;100.00;103193.94;4973705;28;20468;-76
2022/01/15 00:22:17;;;;;;;5.17;1.63;;;;;;;5.72;100.00;103307.47;4974605;28;20425;-77
2022/01/15 00:24:43;;;;;;;6.73;1.77;;;;;;;6.00;100.00;103343.72;4979837;28;20448;-77
2022/01/15 00:27:09;;;;;;;7.03;1.90;;;;;;;6.04;100.00;103299.06;4979245;28;21149;-77
2022/01/15 00:29:35;;;;;;;4.90;1.60;;;;;;;5.66;100.00;103273.28;4981845;28;20452;-77
2022/01/15 00:32:02;;;;;;;7.00;2.60;;;;;;;6.23;100.00;103334.13;4983267;28;20275;-77
2022/01/15 00:34:28;;;;;;;10.13;1.87;;;;;;;6.00;100.00;103333.06;4978821;28;20953;-76
2022/01/15 00:36:54;;;;;;;7.90;1.50;;;;;;;5.57;100.00;103273.94;4976878;28;20478;-76
2022/01/15 00:39:19;;;;;;;8.43;1.83;;;;;;;5.95;100.00;103329.88;4976055;28;20274;-77
2022/01/15 00:41:45;;;;;;;6.43;1.80;;;;;;;5.97;100.00;103322.63;4959152;28;20190;-77
2022/01/15 00:44:10;;;;;;;3.60;1.70;;;;;;;5.66;100.00;103330.06;4973973;28;20537;-77
2022/01/15 00:46:36;;;;;;;8.57;1.70;;;;;;;5.43;100.00;103217.16;4973329;28;20236;-77
2022/01/15 00:49:01;;;;;;;11.73;2.47;;;;;;;5.43;100.00;103198.53;4974322;28;20227;-77
2022/01/15 00:51:27;;;;;;;4.30;1.67;;;;;;;6.08;100.00;103317.41;4977151;28;20463;-77
2022/01/15 00:53:52;;;;;;;8.93;2.07;;;;;;;5.70;100.00;103265.94;4975882;28;20611;-77
2022/01/15 00:56:18;;;;;;;7.53;2.20;;;;;;;5.92;100.00;103315.91;4974989;28;20189;-77
2022/01/15 00:58:43;;;;;;;7.27;2.10;;;;;;;5.73;100.00;103306.53;4970945;28;20193;-77
2022/01/15 01:01:08;;;;;;;5.93;2.30;;;;;;;5.19;100.00;103190.44;4973356;28;20302;-78
2022/01/15 01:03:34;;;;;;;3.50;1.70;;;;;;;6.07;100.00;103315.69;4972606;28;20213;-76
2022/01/15 01:05:59;;;;;;;4.70;1.90;;;;;;;5.70;100.00;103253.50;4980661;28;20210;-77
2022/01/15 01:08:25;;;;;;;11.50;2.07;;;;;;;5.74;100.00;103259.44;4978708;28;20188;-77
2022/01/15 01:13:42;;;;;;;6.73;1.67;;;;;;;5.56;100.00;103211.00;4978239;28;20178;-77
2022/01/15 01:24:29;;;;;;;7.23;2.47;;;;;;;5.52;100.00;103226.31;4975883;28;20465;-77
2022/01/15 01:27:02;;;;;;;7.17;1.90;;;;;;;5.72;100.00;103242.72;4963236;28;20448;-77
2022/01/15 01:32:03;;;;;;;8.40;2.17;;;;;;;5.84;100.00;103282.66;4982293;28;20436;-77
2022/01/15 01:34:31;;;;;;;5.60;1.90;;;;;;;6.01;100.00;103283.31;4961153;28;20669;-76
2022/01/15 01:37:05;;;;;;;6.97;2.30;;;;;;;5.46;100.00;103193.97;4978324;28;20463;-77
2022/01/15 01:39:50;;;;;;;6.90;2.00;;;;;;;5.20;100.00;103202.78;4982781;28;20448;-77
2022/01/15 01:45:14;;;;;;;5.23;2.17;;;;;;;5.70;100.00;103273.91;4975124;28;20456;-77
2022/01/15 01:47:42;;;;;;;5.70;2.10;;;;;;;5.55;100.00;103275.84;4978226;28;20441;-77
2022/01/15 01:50:34;;;;;;;7.70;2.57;;;;;;;5.59;100.00;103246.25;4977555;28;20511;-77
2022/01/15 01:53:00;;;;;;;4.00;2.33;;;;;;;5.58;100.00;103225.91;4975519;28;20455;-77
2022/01/15 01:55:27;;;;;;;9.03;3.40;;;;;;;5.57;100.00;103218.88;4977079;28;20459;-77
2022/01/15 01:57:54;;;;;;;5.83;2.40;;;;;;;5.95;100.00;103259.75;4978045;28;20190;-77
2022/01/15 02:00:21;;;;;;;8.50;3.13;;;;;;;5.71;100.00;103260.50;4977048;28;21371;-77
2022/01/15 02:02:48;;;;;;;6.37;2.80;;;;;;;5.71;100.00;103255.19;4975642;28;20902;-77
2022/01/15 02:05:14;;;;;;;9.17;3.00;;;;;;;4.85;100.00;103154.69;4978291;28;20441;-77
2022/01/15 02:07:44;;;;;;;4.43;2.80;;;;;;;5.76;100.00;103260.19;4974752;28;20437;-78
2022/01/15 02:10:13;;;;;;;5.37;2.80;;;;;;;4.91;100.00;103167.53;4977799;28;20480;-77
2022/01/15 02:12:39;;;;;;;9.13;3.63;;;;;;;4.63;100.00;103142.00;4975080;28;20445;-77
2022/01/15 02:15:09;;;;;;;4.50;3.07;;;;;;;5.47;100.00;103246.22;4974031;28;20450;-76
2022/01/15 02:17:35;;;;;;;5.07;2.90;;;;;;;5.10;100.00;103193.75;4975778;28;20489;-76
2022/01/15 02:25:48;;;;;;;3.80;2.63;;;;;;;5.47;100.00;103243.56;4969099;28;20852;-77
2022/01/15 02:28:17;;;;;;;8.40;2.97;;;;;;;4.75;100.00;103137.66;4972646;28;20430;-77
2022/01/15 02:30:42;;;;;;;6.03;2.87;;;;;;;4.59;100.00;103115.72;4973051;28;21125;-77
2022/01/15 02:33:08;;;;;;;5.77;3.27;;;;;;;4.86;100.00;103217.56;4972835;28;20445;-76
2022/01/15 02:35:35;;;;;;;4.37;2.83;;;;;;;4.96;100.00;103237.25;4973843;28;20186;-77
2022/01/15 02:38:05;;;;;;;4.70;2.93;;;;;;;4.68;100.00;103123.06;4977165;28;20546;-77
2022/01/15 02:40:35;;;;;;;7.83;3.07;;;;;;;4.25;100.00;103094.06;4973021;28;20461;-77
2022/01/15 02:43:11;;;;;;;7.77;3.87;;;;;;;4.82;100.00;103181.47;4971246;28;20552;-77
2022/01/15 02:45:41;;;;;;;6.83;3.00;;;;;;;3.83;100.00;103080.84;4979606;28;20444;-78
2022/01/15 02:48:17;;;;;;;6.90;3.00;;;;;;;5.00;100.00;103211.28;4977807;28;20444;-78
2022/01/15 02:50:45;;;;;;;8.20;3.00;;;;;;;4.65;100.00;103148.03;4975597;28;20559;-78
2022/01/15 02:53:12;;;;;;;8.10;3.50;;;;;;;5.02;100.00;103198.75;4975129;28;21102;-78
2022/01/15 02:55:42;;;;;;;3.20;2.80;;;;;;;4.96;100.00;103200.00;4961005;28;20542;-77
2022/01/15 02:58:08;;;;;;;4.60;2.57;;;;;;;4.44;100.00;103136.22;4972776;28;20511;-77
2022/01/15 03:00:34;;;;;;;5.80;3.30;;;;;;;3.54;100.00;103032.31;4980119;28;20968;-78
2022/01/15 03:03:00;;;;;;;4.17;2.80;;;;;;;4.83;100.00;103179.66;4978165;28;20550;-78
2022/01/15 03:05:25;;;;;;;6.37;3.20;;;;;;;5.04;100.00;103196.84;4979274;28;20477;-78
2022/01/15 03:07:50;;;;;;;4.70;2.47;;;;;;;4.12;100.00;103051.53;4956963;28;20186;-77
2022/01/15 03:10:16;;;;;;;5.83;3.23;;;;;;;4.92;100.00;103171.94;4963856;28;20213;-77
2022/01/15 03:12:41;;;;;;;7.70;2.90;;;;;;;3.46;100.00;103026.66;4979096;28;20182;-78
2022/01/15 03:15:08;;;;;;;6.90;3.03;;;;;;;3.61;100.00;103038.06;4977271;28;20205;-77
2022/01/15 03:17:34;;;;;;;5.03;2.23;;;;;;;4.76;100.00;103142.84;4977737;28;20205;-78
2022/01/15 03:22:30;;;;;;;4.07;2.20;;;;;;;3.84;100.00;102973.69;4985460;28;20523;-81
2022/01/15 03:24:55;;;;;;;4.47;2.10;;;;;;;3.92;100.00;103059.97;4992388;28;20440;-78
2022/01/15 03:27:24;;;;;;;4.60;2.77;;;;;;;4.61;100.00;103159.00;4985648;28;20208;-81
2022/01/15 03:29:52;;;;;;;6.13;2.33;;;;;;;4.20;100.00;103098.84;4991959;28;20189;-81
2022/01/15 03:32:18;;;;;;;5.37;2.60;;;;;;;4.49;100.00;103108.38;5002419;28;20456;-81
2022/01/15 03:34:44;;;;;;;5.43;2.37;;;;;;;4.68;100.00;103157.63;4994750;28;20511;-81
2022/01/15 03:37:09;;;;;;;4.97;2.27;;;;;;;4.05;100.00;103156.44;4998552;28;20652;-82
2022/01/15 03:39:35;;;;;;;8.30;2.40;;;;;;;3.73;100.00;103087.72;4997869;28;20177;-81
2022/01/15 03:42:02;;;;;;;6.00;2.50;;;;;;;3.66;100.00;103030.66;5002566;28;20685;-79
2022/01/15 03:44:28;;;;;;;6.60;2.30;;;;;;;3.99;100.00;103061.25;4992086;28;20204;-80
2022/01/15 03:46:53;;;;;;;4.53;2.60;;;;;;;3.96;100.00;103050.84;5002637;28;20443;-80
2022/01/15 03:49:19;;;;;;;6.73;2.40;;;;;;;3.08;100.00;102909.78;5000690;28;20197;-81
2022/01/15 03:51:44;;;;;;;3.50;2.33;;;;;;;3.88;100.00;103154.03;4997362;28;20214;-83
2022/01/15 03:54:10;;;;;;;5.50;2.50;;;;;;;3.20;100.00;103036.25;4998385;28;20673;-80
2022/01/15 03:56:35;;;;;;;5.40;2.60;;;;;;;3.55;100.00;103076.47;4998907;28;20188;-78
2022/01/15 03:59:00;;;;;;;5.17;2.23;;;;;;;2.87;100.00;102891.63;4997075;28;20181;-80
2022/01/15 04:01:26;;;;;;;8.00;2.77;;;;;;;4.63;100.00;103144.66;5015530;28;20204;-80
2022/01/15 04:03:51;;;;;;;3.57;1.93;;;;;;;3.03;100.00;102912.69;4996807;28;20247;-79
2022/01/15 04:06:17;;;;;;;7.10;2.20;;;;;;;3.85;100.00;103126.75;4999974;28;20215;-82
2022/01/15 04:08:42;;;;;;;5.97;2.87;;;;;;;2.56;100.00;102916.56;5002098;28;20182;-82
2022/01/15 04:11:08;;;;;;;5.77;2.50;;;;;;;2.88;100.00;102913.69;5004005;28;20428;-81
2022/01/15 04:13:33;;;;;;;6.97;2.90;;;;;;;4.83;100.00;103172.56;4999471;28;20696;-81
2022/01/15 04:16:00;;;;;;;3.77;1.60;;;;;;;4.29;100.00;103123.00;4995538;28;20231;-80
2022/01/15 04:18:28;;;;;;;3.07;1.67;;;;;;;3.87;100.00;103131.94;4994548;28;20189;-80
2022/01/15 04:20:56;;;;;;;3.90;2.17;;;;;;;4.21;100.00;103161.63;5003467;28;20459;-77
2022/01/15 04:23:21;;;;;;;5.40;2.20;;;;;;;4.12;100.00;103117.09;4999393;28;20459;-79
2022/01/15 04:25:47;;;;;;;5.17;2.27;;;;;;;4.06;100.00;103078.50;4999889;28;20558;-79
2022/01/15 04:28:12;;;;;;;4.63;2.03;;;;;;;2.47;100.00;102841.16;5001196;28;20224;-78
2022/01/15 04:30:47;;;;;;;6.13;1.90;;;;;;;4.30;100.00;103161.03;4998116;28;20575;-78
2022/01/15 04:33:12;;;;;;;2.63;2.13;;;;;;;2.38;100.00;102965.41;5000194;28;20190;-79
2022/01/15 04:35:37;;;;;;;3.37;1.80;;;;;;;3.19;100.00;103057.59;4998179;28;20447;-80
2022/01/15 04:38:07;;;;;;;4.30;1.93;;;;;;;2.91;100.00;103054.00;4998093;28;20173;-78
2022/01/15 04:40:33;;;;;;;4.40;2.27;;;;;;;3.22;100.00;103105.13;4999614;28;20193;-79
2022/01/15 04:42:58;;;;;;;4.57;2.17;;;;;;;3.06;100.00;103073.41;5000872;28;21081;-80
2022/01/15 04:45:24;;;;;;;3.27;1.63;;;;;;;3.61;100.00;103168.09;5000028;28;20194;-78
2022/01/15 04:47:49;;;;;;;2.67;1.83;;;;;;;3.61;100.00;103178.72;4997328;28;20618;-78
2022/01/15 04:50:18;;;;;;;4.13;2.60;;;;;;;3.79;100.00;103177.59;4993845;28;20674;-79
2022/01/15 04:52:44;;;;;;;2.30;1.63;;;;;;;3.76;100.00;103153.88;5010437;28;20293;-77
2022/01/15 04:55:11;;;;;;;4.20;2.37;;;;;;;2.70;100.00;102972.22;5001638;28;20444;-78
2022/01/15 04:57:37;;;;;;;2.53;2.10;;;;;;;2.87;100.00;102976.47;4995920;28;20270;-76
2022/01/15 05:00:09;;;;;;;6.00;2.53;;;;;;;2.67;100.00;102969.75;4999005;28;20448;-77
2022/01/15 05:02:34;;;;;;;3.27;1.70;;;;;;;3.36;100.00;103083.91;4995353;28;20909;-78
2022/01/15 05:05:00;;;;;;;4.43;2.17;;;;;;;2.83;100.00;103017.34;5001709;28;20475;-78
2022/01/15 05:07:25;;;;;;;2.60;1.97;;;;;;;2.60;100.00;102959.63;4997761;28;20192;-77
2022/01/15 05:09:51;;;;;;;3.57;2.10;;;;;;;3.67;100.00;103104.03;5001959;28;20189;-78
2022/01/15 05:12:40;;;;;;;2.77;2.00;;;;;;;2.16;100.00;102868.72;4997555;28;20283;-78
2022/01/15 05:15:09;;;;;;;5.37;2.63;;;;;;;3.99;100.00;103149.75;5013727;28;20219;-78
2022/01/15 05:17:35;;;;;;;6.20;2.00;;;;;;;3.06;100.00;103030.97;4994446;28;20440;-77
2022/01/15 05:20:00;;;;;;;5.33;2.13;;;;;;;3.61;100.00;103149.53;4998726;28;20451;-76
2022/01/15 05:22:25;;;;;;;5.87;2.50;;;;;;;3.12;100.00;103104.84;4995687;28;20672;-83
2022/01/15 05:24:51;;;;;;;4.23;2.20;;;;;;;2.53;100.00;102955.66;4997902;28;20697;-78
2022/01/15 05:27:16;;;;;;;3.07;2.10;;;;;;;4.00;100.00;103153.25;4998873;28;20190;-78
2022/01/15 05:29:42;;;;;;;5.67;2.37;;;;;;;3.87;100.00;103152.34;4999190;28;20189;-79
2022/01/15 05:32:08;;;;;;;6.43;2.50;;;;;;;2.76;100.00;102993.97;4997256;28;20236;-79
2022/01/15 05:34:33;;;;;;;4.87;2.53;;;;;;;3.16;100.00;103067.44;4995510;28;20662;-78
2022/01/15 05:36:59;;;;;;;6.33;2.60;;;;;;;2.03;100.00;102836.84;5000305;28;20444;-78
2022/01/15 05:39:24;;;;;;;7.83;2.77;;;;;;;3.88;100.00;103162.88;4997819;28;20189;-83
2022/01/15 05:41:50;;;;;;;7.50;3.00;;;;;;;4.12;100.00;103156.94;4998195;28;20336;-77
2022/01/15 05:44:15;;;;;;;7.00;2.57;;;;;;;3.48;100.00;103030.06;4994947;28;20200;-78
2022/01/15 05:46:41;;;;;;;2.80;2.30;;;;;;;3.36;100.00;102976.00;5009399;28;20224;-80
2022/01/15 05:49:06;;;;;;;7.90;3.20;;;;;;;3.22;100.00;102959.28;4997954;28;20247;-82
2022/01/15 05:51:32;;;;;;;7.27;3.00;;;;;;;2.32;100.00;102858.03;4995677;28;20211;-80
2022/01/15 05:53:59;;;;;;;9.80;3.03;;;;;;;3.83;100.00;103139.25;4994234;28;20268;-76
2022/01/15 05:56:25;;;;;;;10.60;3.30;;;;;;;2.82;100.00;102945.88;4999570;28;20193;-80
2022/01/15 05:58:51;;;;;;;7.57;3.03;;;;;;;2.68;100.00;102896.41;4997676;28;20439;-81
2022/01/15 06:01:17;;;;;;;8.10;4.27;;;;;;;3.32;100.00;102987.72;4996475;28;20517;-77
2022/01/15 06:03:42;;;;;;;8.10;4.93;;;;;;;3.75;100.00;103029.22;4995458;28;20225;-79
2022/01/15 06:06:08;;;;;;;7.30;4.43;;;;;;;3.91;100.00;103002.53;4994330;28;20574;-78
2022/01/15 06:08:33;;;;;;;11.27;6.10;;;;;;;4.37;100.00;103073.78;4997514;28;20533;-77
2022/01/15 06:10:59;;;;;;;12.10;5.77;;;;;;;3.63;100.00;102988.41;4996469;28;20228;-78
2022/01/15 06:13:24;;;;;;;9.00;5.80;;;;;;;3.31;100.00;102959.50;4998166;28;20665;-77
2022/01/15 06:15:50;;;;;;;8.00;5.00;;;;;;;4.60;100.00;103120.94;4994161;28;20189;-77
2022/01/15 06:18:15;;;;;;;9.47;5.40;;;;;;;4.00;100.00;103020.50;4991469;28;20245;-78
2022/01/15 06:20:41;;;;;;;8.87;5.57;;;;;;;4.48;100.00;103084.53;4997023;28;20221;-79
2022/01/15 06:23:06;;;;;;;8.27;5.47;;;;;;;3.39;100.00;102882.94;4997864;28;20266;-77
2022/01/15 06:25:32;;;;;;;13.83;6.60;;;;;;;4.10;100.00;102984.38;4997917;28;20189;-80
2022/01/15 06:27:57;;;;;;;7.00;6.10;;;;;;;4.62;100.00;103113.69;4990212;28;20272;-77
2022/01/15 06:30:23;;;;;;;11.00;6.07;;;;;;;4.07;100.00;103024.41;4992537;28;21480;-80
2022/01/15 06:32:49;;;;;;;6.27;5.03;;;;;;;3.94;100.00;103002.31;4988290;28;20181;-77
2022/01/15 06:35:17;;;;;;;10.90;5.93;;;;;;;4.67;100.00;103121.38;4998874;28;20463;-78
2022/01/15 06:37:43;;;;;;;7.83;5.87;;;;;;;4.59;100.00;103087.31;4986880;28;20189;-80
2022/01/15 06:40:11;;;;;;;11.73;6.90;;;;;;;3.95;100.00;102985.41;5003030;28;20818;-78
2022/01/15 06:42:37;;;;;;;11.50;7.10;;;;;;;3.32;100.00;102868.38;5000001;28;20440;-77
2022/01/15 06:45:05;;;;;;;9.93;5.63;;;;;;;4.45;100.00;103076.78;5007596;28;20452;-77
2022/01/15 06:47:31;;;;;;;11.70;7.47;;;;;;;3.45;100.00;102940.06;4997588;28;20554;-77
2022/01/15 06:49:56;;;;;;;13.90;6.53;;;;;;;3.75;100.00;102982.28;4988217;28;20444;-79
2022/01/15 06:52:23;;;;;;;11.93;5.43;;;;;;;4.78;100.00;103115.34;4988835;28;20703;-84
2022/01/15 06:54:49;;;;;;;9.37;5.63;;;;;;;4.13;100.00;102989.47;4991241;28;20645;-84
2022/01/15 06:57:15;;;;;;;15.60;6.20;;;;;;;5.09;100.00;103135.31;4997248;28;20432;-87
2022/01/15 06:59:44;;;;;;;10.63;5.43;;;;;;;5.21;100.00;103142.47;4995936;28;20936;-85
2022/01/15 07:02:10;;;;;;;10.87;6.00;;;;;;;4.92;100.00;103110.75;5010242;28;20208;-87
2022/01/15 07:04:36;;;;;;;13.77;7.07;;;;;;;4.02;100.00;102997.31;5000661;28;20455;-87
2022/01/15 07:07:02;;;;;;;12.17;5.67;;;;;;;3.96;100.00;102992.41;5011796;28;20464;-83
2022/01/15 07:09:27;;;;;;;12.60;5.90;;;;;;;4.66;100.00;103078.00;4994976;28;20254;-86
2022/01/15 07:11:53;;;;;;;9.87;6.00;;;;;;;4.51;100.00;103053.31;5002282;28;20254;-87
2022/01/15 07:14:19;;;;;;;12.90;5.73;;;;;;;4.61;100.00;103069.47;4986625;28;20237;-85
2022/01/15 07:16:44;;;;;;;13.27;5.60;;;;;;;4.08;100.00;102986.31;4994351;28;20186;-85
2022/01/15 07:19:10;;;;;;;13.67;5.40;;;;;;;4.80;100.00;103111.59;4991855;28;20177;-83
2022/01/15 07:21:36;;;;;;;10.43;5.80;;;;;;;4.99;100.00;103106.69;4999731;28;20860;-82
2022/01/15 07:24:02;;;;;;;11.03;5.40;;;;;;;4.87;100.00;103125.34;5004505;28;20216;-84
2022/01/15 07:26:27;;;;;;;13.00;5.27;;;;;;;3.73;100.00;102948.81;5002188;28;20860;-82
2022/01/15 07:28:52;;;;;;;9.60;4.90;;;;;;;3.56;100.00;102900.41;5001442;28;20193;-85
2022/01/15 07:31:18;;;;;;;9.60;3.70;;;;;;;3.91;100.00;102931.69;5000217;28;20202;-84
2022/01/15 07:33:43;;;;;;;13.83;5.00;;;;;;;4.36;100.00;103019.78;5001274;28;20661;-84
2022/01/15 07:36:09;;;;;;;12.93;4.37;;;;;;;3.52;100.00;102868.84;5003630;28;20193;-84
2022/01/15 07:38:35;;;;;;;8.83;4.30;;;;;;;4.15;100.00;103019.44;5002772;28;20727;-83
2022/01/15 07:41:01;;;;;;;11.80;4.33;;;;;;;4.56;100.00;103031.72;4999271;28;20291;-85
2022/01/15 07:43:27;;;;;;;12.23;4.60;;;;;;;5.14;100.00;103099.47;4999931;28;20536;-85
2022/01/15 07:45:52;;;;;;;15.30;5.03;;;;;;;3.53;100.00;102886.47;5002060;28;20193;-85
2022/01/15 07:48:21;;;;;;;13.60;4.20;;;;;;;4.35;100.00;103022.56;5001979;28;20440;-86
2022/01/15 07:50:47;;;;;;;9.87;3.80;;;;;;;4.19;100.00;102948.38;4997137;28;20205;-87
2022/01/15 07:53:12;;;;;;;10.33;3.77;;;;;;;3.73;100.00;102909.00;4997113;28;20439;-83
2022/01/15 07:55:38;;;;;;;13.37;3.07;;;;;;;4.19;100.00;102962.50;4997013;28;20189;-86
2022/01/15 07:58:04;;;;;;;10.33;3.23;;;;;;;3.97;100.00;102944.53;4993723;28;20193;-84
2022/01/15 08:00:30;;;;;;;11.67;3.50;;;;;;;4.04;100.00;102944.97;4990223;28;20197;-84
2022/01/15 08:02:57;;;;;;;9.10;3.20;;;;;;;3.59;100.00;102886.91;4991107;28;20864;-84
2022/01/15 08:05:22;;;;;;;11.30;3.33;;;;;;;4.87;100.00;103046.41;4995848;28;20197;-86
2022/01/15 08:07:48;;;;;;;13.20;2.93;;;;;;;4.35;100.00;102985.38;5003254;28;20428;-86
2022/01/15 08:10:17;;;;;;;9.23;3.03;;;;;;;3.10;100.00;102805.31;5005159;28;20192;-85
2022/01/15 08:12:44;;;;;;;8.40;2.40;;;;;;;4.81;100.00;103046.84;5004792;28;20650;-87
2022/01/15 08:15:10;;;;;;;7.67;2.67;;;;;;;4.82;100.00;103056.50;5004366;28;20764;-86
2022/01/15 08:17:35;;;;;;;13.20;3.67;;;;;;;3.28;100.00;102782.00;5004425;28;20439;-85
2022/01/15 08:20:01;;;;;;;8.33;2.17;;;;;;;4.44;100.00;102974.94;5003278;28;20186;-86
2022/01/15 08:22:26;;;;;;;12.23;3.20;;;;;;;4.82;100.00;103047.69;5001107;28;20200;-86
2022/01/15 08:24:52;;;;;;;11.13;2.53;;;;;;;5.17;100.00;103093.91;5003840;28;20201;-85
2022/01/15 08:27:17;;;;;;;8.00;2.43;;;;;;;5.32;100.00;103091.13;5005387;28;20264;-85
2022/01/15 08:29:43;;;;;;;10.30;3.07;;;;;;;4.50;100.00;102952.41;5003944;28;20189;-86
2022/01/15 08:32:08;;;;;;;7.30;2.07;;;;;;;3.91;100.00;102883.03;5004242;28;20673;-86
2022/01/15 08:34:34;;;;;;;15.47;7.83;;;;;;;4.65;100.00;103028.41;5004198;28;20997;-84
2022/01/15 08:36:59;;;;;;;17.93;10.80;;;;;;;5.11;100.00;103085.53;5001707;28;20220;-87
2022/01/15 08:39:25;;;;;;;14.23;7.87;;;;;;;4.17;100.00;102907.81;5002501;28;20213;-84
2022/01/15 08:41:51;;;;;;;11.90;5.30;;;;;;;4.69;100.00;102944.84;5003738;28;20220;-85
2022/01/15 08:44:22;;;;;;;9.80;4.23;;;;;;;5.34;100.00;103033.34;5004233;28;20208;-86
2022/01/15 08:46:48;;;;;;;8.67;4.30;;;;;;;4.52;100.00;102905.34;5000200;28;20220;-84
2022/01/15 08:49:13;;;;;;;12.00;2.80;;;;;;;5.03;100.00;102960.19;5003698;28;20448;-84
2022/01/15 08:51:39;;;;;;;10.70;2.90;;;;;;;4.98;100.00;103008.41;5006743;28;20214;-85
2022/01/15 08:54:05;;;;;;;12.17;2.80;;;;;;;3.70;100.00;102772.03;5003958;28;20192;-84
2022/01/15 08:56:30;;;;;;;6.97;2.50;;;;;;;4.75;100.00;102949.72;5003964;28;20188;-84
2022/01/15 08:58:56;;;;;;;8.50;2.90;;;;;;;4.65;100.00;102906.13;5002440;28;20239;-81
2022/01/15 09:01:21;;;;;;;5.60;2.50;;;;;;;4.57;100.00;102934.22;5018460;28;20697;-84
2022/01/15 09:03:47;;;;;;;9.30;2.90;;;;;;;5.28;100.00;103073.69;5016336;28;20220;-84
2022/01/15 09:06:13;;;;;;;4.70;2.87;;;;;;;4.41;100.00;102897.25;5003131;28;20197;-84
2022/01/15 09:08:39;;;;;;;8.47;2.70;;;;;;;5.32;100.00;103086.69;5000105;28;20198;-85
2022/01/15 09:11:06;;;;;;;7.50;3.47;;;;;;;4.05;100.00;102894.41;5000312;28;20223;-85
2022/01/15 09:13:31;;;;;;;8.50;3.00;;;;;;;4.53;100.00;102946.88;5000001;28;20420;-84
2022/01/15 09:15:57;;;;;;;6.77;2.67;;;;;;;4.51;100.00;102927.53;5002937;28;20417;-84
2022/01/15 09:18:23;;;;;;;12.17;4.30;;;;;;;4.80;100.00;102937.91;5004807;28;20185;-86
2022/01/15 09:20:48;;;;;;;9.20;2.90;;;;;;;3.84;100.00;102827.69;5010949;23;20508;-78
2022/01/15 09:23:15;;;;;;;9.33;2.53;;;;;;;5.42;100.00;103029.16;4982971;28;20317;-76
2022/01/15 09:25:40;;;;;;;8.20;3.30;;;;;;;5.10;100.00;102949.00;4984232;28;20609;-78
2022/01/15 09:30:51;;;;;;;8.83;3.40;;;;;;;4.99;100.00;102963.06;4983528;28;20224;-79
2022/01/15 09:33:16;;;;;;;11.13;2.83;;;;;;;5.06;100.00;102978.59;4987597;28;20426;-78
2022/01/15 09:35:42;;;;;;;9.87;2.97;;;;;;;5.32;100.00;103011.31;4987879;28;20179;-77
2022/01/15 09:38:08;;;;;;;9.47;2.93;;;;;;;4.51;100.00;102885.00;4988058;28;20197;-77
2022/01/15 09:40:34;;;;;;;6.33;2.20;;;;;;;3.42;100.00;102708.59;4986814;28;20297;-78
2022/01/15 09:43:00;;;;;;;6.70;2.63;;;;;;;5.32;100.00;103027.25;4987594;28;20491;-78
2022/01/15 09:45:35;;;;;;;9.90;2.73;;;;;;;5.35;100.00;103035.91;5056413;28;20521;-78
2022/01/15 09:48:02;;;;;;;5.60;3.43;;;;;;;5.25;100.00;103024.19;5042574;28;20438;-78
2022/01/15 09:50:30;;;;;;;8.87;4.80;;;;;;;5.47;100.00;103034.16;5041760;28;20433;-77
2022/01/15 09:52:57;;;;;;;6.17;3.00;;;;;;;5.18;100.00;103034.44;5041584;28;21303;-77
2022/01/15 09:55:23;;;;;;;5.20;3.27;;;;;;;4.18;100.00;102859.03;5041821;28;20458;-77
2022/01/15 09:57:50;;;;;;;7.30;3.63;;;;;;;5.46;100.00;103034.25;5043310;28;20422;-79
2022/01/15 10:00:20;;;;;;;6.70;3.30;;;;;;;5.20;100.00;103035.16;5041466;28;20442;-76
2022/01/15 10:02:47;;;;;;;8.43;3.30;;;;;;;5.32;100.00;103037.91;5040952;28;20513;-78
2022/01/15 10:05:14;;;;;;;4.90;3.33;;;;;;;4.57;100.00;102921.81;5041445;28;20547;-76
2022/01/15 10:07:57;;;;;;;7.93;3.63;;;;;;;5.10;100.00;103023.50;5041579;28;20564;-76
2022/01/15 10:10:25;;;;;;;8.03;3.27;;;;;;;4.89;100.00;102988.66;5040571;28;20430;-76
2022/01/15 10:12:50;;;;;;;5.77;3.20;;;;;;;4.38;100.00;102890.34;5029602;28;20963;-76
2022/01/15 10:15:17;;;;;;;4.03;2.53;;;;;;;5.29;100.00;103000.88;5040306;28;20427;-77
2022/01/15 10:17:43;;;;;;;3.53;2.03;;;;;;;5.47;100.00;103004.88;5040522;28;20184;-77
2022/01/15 10:20:11;;;;;;;2.83;2.23;;;;;;;5.27;100.00;103001.00;5039768;28;20433;-76
2022/01/15 10:22:46;;;;;;;2.97;2.50;;;;;;;4.96;100.00;102986.41;5041908;28;20509;-75
2022/01/15 10:25:19;;;;;;;4.43;2.30;;;;;;;4.92;100.00;102980.44;5039858;28;20479;-74
2022/01/15 10:27:47;;;;;;;4.43;3.50;;;;;;;5.06;100.00;103000.72;5040616;28;20848;-75
2022/01/15 10:30:19;;;;;;;3.10;2.63;;;;;;;5.00;100.00;102998.50;5038555;28;21011;-75
2022/01/15 10:33:05;;;;;;;3.83;3.10;;;;;;;5.14;100.00;102995.69;5039518;28;20441;-76
2022/01/15 10:35:43;;;;;;;6.20;3.77;;;;;;;4.98;100.00;102973.84;5040326;28;20433;-75
2022/01/15 10:38:12;;;;;;;4.07;3.37;;;;;;;5.34;100.00;102999.59;5041686;28;20427;-76
2022/01/15 10:40:45;;;;;;;5.43;3.20;;;;;;;4.49;100.00;102881.63;5040620;28;20491;-76
2022/01/15 10:43:13;;;;;;;4.83;3.40;;;;;;;5.11;100.00;103005.72;5041179;28;20502;-75
2022/01/15 10:45:56;;;;;;;3.50;3.20;;;;;;;5.12;100.00;102986.13;5042136;28;20441;-75
2022/01/15 10:48:31;;;;;;;6.77;3.47;;;;;;;5.18;100.00;102975.06;5041870;28;20429;-75
2022/01/15 10:51:03;;;;;;;4.17;3.30;;;;;;;5.04;100.00;102948.63;5040860;28;20443;-77
2022/01/15 10:53:44;;;;;;;3.23;2.93;;;;;;;5.18;100.00;102957.28;5040700;28;20933;-76
2022/01/15 10:56:11;;;;;;;4.23;3.80;;;;;;;5.31;100.00;102985.66;5032101;28;20501;-76
2022/01/15 10:58:38;;;;;;;3.97;3.17;;;;;;;5.21;100.00;102974.84;5027260;28;20423;-75
2022/01/15 11:01:04;;;;;;;4.80;3.43;;;;;;;5.26;100.00;102977.16;5026438;28;20470;-77
2022/01/15 11:03:37;;;;;;;5.20;3.60;;;;;;;4.82;100.00;102901.44;5027308;28;20467;-76
2022/01/15 11:06:05;;;;;;;4.17;3.77;;;;;;;5.21;100.00;102964.19;5028095;28;20435;-75
2022/01/15 11:08:34;;;;;;;3.73;3.17;;;;;;;4.73;100.00;102833.81;5027015;28;20478;-77
2022/01/15 11:11:05;;;;;;;3.73;3.10;;;;;;;5.21;100.00;102962.38;5027603;28;20795;-75
2022/01/15 11:13:33;;;;;;;5.00;3.50;;;;;;;5.28;100.00;102959.28;5027555;28;21080;-76
2022/01/15 11:16:01;;;;;;;5.53;3.70;;;;;;;5.30;100.00;102950.22;5035291;28;20828;-76
2022/01/15 11:18:29;;;;;;;4.03;3.73;;;;;;;5.46;100.00;102951.75;5028174;28;20439;-76
2022/01/15 11:21:05;;;;;;;8.67;4.40;;;;;;;4.59;100.00;102834.81;5026738;28;20443;-76
2022/01/15 11:23:32;;;;;;;6.20;4.30;;;;;;;4.48;100.00;102834.72;5027652;28;20479;-76
2022/01/15 11:26:06;;;;;;;6.13;4.33;;;;;;;5.30;100.00;102960.03;5025159;28;20928;-76
2022/01/15 11:28:35;;;;;;;4.90;4.27;;;;;;;5.12;100.00;102901.88;5027069;28;20896;-76
2022/01/15 11:31:08;;;;;;;4.53;4.10;;;;;;;5.37;100.00;102950.63;5026616;28;20439;-76
2022/01/15 11:33:36;;;;;;;6.33;4.60;;;;;;;4.97;100.00;102897.66;5025375;28;20441;-75
2022/01/15 11:36:07;;;;;;;8.40;5.73;;;;;;;5.19;100.00;102958.97;5025081;28;20423;-75
2022/01/15 11:38:43;;;;;;;8.00;5.67;;;;;;;5.09;100.00;102918.06;5026251;28;20877;-75
2022/01/15 11:41:27;;;;;;;7.17;5.27;;;;;;;5.33;100.00;102935.84;5025792;28;20454;-73
2022/01/15 11:43:54;;;;;;;6.00;5.07;;;;;;;5.28;100.00;102938.84;5027669;28;20549;-74
2022/01/15 11:46:27;;;;;;;6.07;4.70;;;;;;;5.55;100.00;102937.75;5028581;28;20435;-76
2022/01/15 11:49:24;;;;;;;7.23;5.17;;;;;;;5.46;100.00;102931.28;5025782;28;20461;-76
2022/01/15 11:52:09;;;;;;;5.87;4.63;;;;;;;5.45;100.00;102929.59;5025646;28;20443;-76
2022/01/15 11:54:39;;;;;;;4.57;4.07;;;;;;;5.13;100.00;102889.41;5016863;28;20435;-76